Time;durP1;ratioP1;P1;durP2;ratioP2;P2;SDS_P1;SDS_P2;PMS_P1;PMS_P2;Temp;Humidity;BMP_temperature;BMP_pressure;BME280_temperature;BME280_humidity;BME280_pressure;Samples;Min_cycle;Max_cycle;Signal;HPM_P1;HPM_P2
2022/12/12 00:03:43;;;;;;;28.23;13.40;;;;;;;-2.64;100.00;99489.21;3474665;84;99064;-78
2022/12/12 00:08:44;;;;;;;26.50;12.03;;;;;;;-2.65;100.00;99494.36;3472368;84;32508;-77
2022/12/12 00:13:45;;;;;;;27.43;13.17;;;;;;;-2.67;100.00;99487.12;3456948;83;99124;-79
2022/12/12 00:18:47;;;;;;;32.50;15.03;;;;;;;-2.68;100.00;99490.94;3475542;84;32724;-79
2022/12/12 00:23:47;;;;;;;33.63;14.87;;;;;;;-2.68;100.00;99486.12;3466056;84;99155;-79
2022/12/12 00:28:49;;;;;;;32.98;14.05;;;;;;;-2.68;100.00;99484.20;3471948;83;32370;-80
2022/12/12 00:33:50;;;;;;;26.43;13.10;;;;;;;-2.69;100.00;99487.23;3454153;84;99274;-78
2022/12/12 00:38:52;;;;;;;24.40;10.83;;;;;;;-2.70;100.00;99494.50;3471047;84;26018;-78
2022/12/12 00:43:53;;;;;;;25.27;11.30;;;;;;;-2.68;100.00;99489.59;3462419;83;99222;-78
2022/12/12 00:48:57;;;;;;;27.97;12.40;;;;;;;-2.65;100.00;99498.41;3481559;83;26200;-78
2022/12/12 00:53:58;;;;;;;26.63;11.33;;;;;;;-2.63;100.00;99500.79;3465277;82;99353;-78
2022/12/12 00:59:02;;;;;;;24.23;10.53;;;;;;;-2.60;100.00;99496.91;3466592;83;26201;-78
2022/12/12 01:04:03;;;;;;;27.90;12.43;;;;;;;-2.57;100.00;99500.31;3463612;84;98825;-78
2022/12/12 01:09:04;;;;;;;25.40;11.40;;;;;;;-2.54;100.00;99501.05;3483113;83;28372;-78
2022/12/12 01:14:05;;;;;;;24.23;10.53;;;;;;;-2.49;100.00;99501.44;3454718;84;99300;-77
2022/12/12 01:19:06;;;;;;;23.50;11.87;;;;;;;-2.45;100.00;99499.17;3462121;84;26717;-78
2022/12/12 01:24:07;;;;;;;24.33;10.97;;;;;;;-2.38;100.00;99492.76;3472168;83;99263;-78
2022/12/12 01:29:08;;;;;;;29.13;11.80;;;;;;;-2.30;100.00;99494.66;3457770;84;25893;-78
2022/12/12 01:34:09;;;;;;;25.83;10.13;;;;;;;-2.22;100.00;99484.46;3459915;84;99310;-78
2022/12/12 01:39:10;;;;;;;23.17;11.33;;;;;;;-2.12;100.00;99487.40;3470100;83;25871;-78
2022/12/12 01:44:41;;;;;;;23.73;10.63;;;;;;;-2.04;100.00;99482.01;3463513;83;99239;-78
2022/12/12 01:49:47;;;;;;;22.00;9.00;;;;;;;-1.96;100.00;99486.62;3468167;84;29656;-77
2022/12/12 01:54:53;;;;;;;21.85;9.35;;;;;;;-1.85;100.00;99474.95;3473566;83;99015;-77
2022/12/12 01:59:55;;;;;;;24.20;10.10;;;;;;;-1.77;100.00;99470.09;3471143;84;27392;-77
2022/12/12 02:04:59;;;;;;;23.47;10.53;;;;;;;-1.71;100.00;99468.27;3443067;83;99143;-76
2022/12/12 02:10:00;;;;;;;26.07;11.63;;;;;;;-1.62;100.00;99474.45;3471396;83;28282;-77
2022/12/12 02:15:01;;;;;;;22.90;11.30;;;;;;;-1.54;100.00;99474.20;3469532;83;99247;-77
2022/12/12 02:20:33;;;;;;;21.60;9.37;;;;;;;-1.48;100.00;99470.22;3466569;84;26651;-77
2022/12/12 02:25:46;;;;;;;25.97;11.83;;;;;;;-1.42;100.00;99471.63;3467989;83;98959;-77
2022/12/12 02:31:21;;;;;;;26.73;10.83;;;;;;;-1.36;100.00;99475.20;3472253;84;28756;-76
2022/12/12 02:36:48;;;;;;;28.83;11.25;;;;;;;-1.30;100.00;99475.26;3470109;83;99340;-77
2022/12/12 02:42:00;;;;;;;21.57;9.90;;;;;;;-1.24;100.00;99470.47;3467494;83;27567;-77
2022/12/12 02:47:12;;;;;;;19.90;8.48;;;;;;;-1.19;100.00;99472.98;3464843;83;98780;-77
2022/12/12 02:52:13;;;;;;;18.67;8.80;;;;;;;-1.16;100.00;99474.48;3465465;83;27589;-77
2022/12/12 02:57:21;;;;;;;20.23;9.83;;;;;;;-1.10;100.00;99471.06;3464206;83;98954;-77
2022/12/12 03:02:36;;;;;;;21.20;10.80;;;;;;;-1.07;100.00;99469.86;3470389;83;27581;-77
2022/12/12 03:08:05;;;;;;;20.80;9.30;;;;;;;-1.02;100.00;99468.88;3454923;84;98957;-77
2022/12/12 03:13:52;;;;;;;27.77;11.93;;;;;;;-0.98;100.00;99465.77;3473426;84;27394;-77
2022/12/12 03:19:08;;;;;;;;;;;;;;;-0.94;100.00;99461.31;3477467;83;28190;-77
2022/12/12 03:24:49;;;;;;;22.85;9.70;;;;;;;-0.92;100.00;99463.12;3459214;84;85003;-78
2022/12/12 03:29:59;;;;;;;20.03;7.90;;;;;;;-0.90;100.00;99467.63;3471167;84;27422;-78
2022/12/12 03:35:11;;;;;;;22.53;9.43;;;;;;;-0.87;100.00;99472.39;3471857;83;98903;-77
2022/12/12 03:40:23;;;;;;;19.13;8.83;;;;;;;-0.90;100.00;99461.68;3445594;83;27476;-78
2022/12/12 03:45:48;;;;;;;21.17;9.07;;;;;;;-0.83;100.00;99467.94;3414598;84;99006;-77
2022/12/12 03:50:57;;;;;;;18.87;8.33;;;;;;;-0.82;100.00;99463.53;3409984;86;27382;-78
2022/12/12 03:56:24;;;;;;;19.37;8.18;;;;;;;-0.79;100.00;99462.09;3401082;86;98817;-77
2022/12/12 04:01:37;;;;;;;17.70;7.77;;;;;;;-0.77;100.00;99453.13;3425353;84;27487;-76
2022/12/12 04:06:48;;;;;;;17.07;7.73;;;;;;;-0.76;100.00;99458.75;3403950;85;98802;-78
2022/12/12 04:17:40;;;;;;;19.02;8.15;;;;;;;-0.74;100.00;99462.72;3407643;84;98796;-78
2022/12/12 04:28:06;;;;;;;19.07;7.17;;;;;;;-0.72;100.00;99455.06;3408655;84;98664;-78
2022/12/12 04:33:11;;;;;;;21.03;10.63;;;;;;;-0.70;100.00;99451.50;3416708;84;26403;-78
2022/12/12 04:38:22;;;;;;;16.87;7.00;;;;;;;-0.66;100.00;99451.06;3410333;86;27388;-77
2022/12/12 04:43:33;;;;;;;17.20;7.63;;;;;;;-0.65;100.00;99456.72;3415752;84;104221;-78
2022/12/12 04:48:48;;;;;;;16.63;7.70;;;;;;;-0.63;100.00;99459.06;3401053;86;27626;-78
2022/12/12 04:53:54;;;;;;;16.60;7.50;;;;;;;-0.61;100.00;99456.27;3418920;85;98966;-78
2022/12/12 04:58:55;;;;;;;;;;;;;;;-0.59;100.00;99457.30;3387153;85;28249;-78
2022/12/12 05:04:01;;;;;;;17.02;7.05;;;;;;;-0.57;100.00;99451.00;3391183;86;84975;-78
2022/12/12 05:09:02;;;;;;;15.78;6.65;;;;;;;-0.56;100.00;99450.69;3427563;85;28785;-78
2022/12/12 05:14:09;;;;;;;18.50;8.23;;;;;;;-0.53;100.00;99454.09;3373913;85;99155;-78
2022/12/12 05:19:10;;;;;;;16.90;7.27;;;;;;;-0.50;100.00;99454.77;3397394;85;27417;-78
2022/12/12 05:24:11;;;;;;;19.07;8.33;;;;;;;-0.48;100.00;99462.02;3364563;85;98854;-78
2022/12/12 05:29:11;;;;;;;17.03;7.47;;;;;;;-0.47;100.00;99457.61;3402731;85;26864;-78
2022/12/12 05:34:12;;;;;;;16.63;7.23;;;;;;;-0.43;100.00;99456.42;3434970;85;99035;-78
2022/12/12 05:39:13;;;;;;;16.43;7.87;;;;;;;-0.42;100.00;99450.67;3437136;84;26278;-78
2022/12/12 05:44:14;;;;;;;17.43;7.23;;;;;;;-0.42;100.00;99457.42;3423663;85;98994;-78
2022/12/12 05:49:15;;;;;;;18.77;9.00;;;;;;;-0.38;100.00;99458.13;3439325;85;26582;-78
2022/12/12 05:54:15;;;;;;;18.67;8.20;;;;;;;-0.39;100.00;99465.44;3429231;84;98875;-78
2022/12/12 05:59:16;;;;;;;18.40;8.90;;;;;;;-0.38;100.00;99469.75;3424203;85;33720;-78
2022/12/12 06:04:17;;;;;;;20.33;7.07;;;;;;;-0.37;100.00;99465.34;3433566;85;98914;-77
2022/12/12 06:09:18;;;;;;;19.20;8.73;;;;;;;-0.35;100.00;99470.42;3437145;84;33664;-78
2022/12/12 06:14:18;;;;;;;18.43;8.43;;;;;;;-0.35;100.00;99474.48;3430272;85;99062;-79
2022/12/12 06:19:20;;;;;;;17.80;7.80;;;;;;;-0.34;100.00;99479.34;3429877;85;34422;-78
2022/12/12 06:24:21;;;;;;;17.13;7.23;;;;;;;-0.34;100.00;99484.75;3412543;84;99048;-78
2022/12/12 06:29:22;;;;;;;17.37;7.97;;;;;;;-0.32;100.00;99485.20;3432442;84;32463;-78
2022/12/12 06:34:23;;;;;;;21.37;9.73;;;;;;;-0.33;100.00;99489.80;3428189;84;99408;-78
2022/12/12 06:39:24;;;;;;;19.80;9.00;;;;;;;-0.33;100.00;99484.39;3423790;84;30414;-78
2022/12/12 06:44:25;;;;;;;17.93;8.27;;;;;;;-0.32;100.00;99496.23;3432593;84;99201;-77
2022/12/12 06:49:25;;;;;;;16.83;7.70;;;;;;;-0.32;100.00;99491.95;3443176;84;31958;-78
2022/12/12 06:54:26;;;;;;;17.83;8.00;;;;;;;-0.32;100.00;99502.22;3442200;84;99123;-78
2022/12/12 06:59:29;;;;;;;24.30;11.53;;;;;;;-0.31;100.00;99505.92;3436792;85;31662;-79
2022/12/12 07:04:29;;;;;;;24.90;13.00;;;;;;;-0.29;100.00;99492.09;3390490;85;99272;-79
2022/12/12 07:09:30;;;;;;;21.70;9.37;;;;;;;-0.29;100.00;99498.84;3438528;84;31661;-79
2022/12/12 07:14:31;;;;;;;26.43;10.50;;;;;;;-0.26;100.00;99493.57;3390780;86;99089;-79
2022/12/12 07:19:32;;;;;;;18.30;8.00;;;;;;;-0.22;100.00;99494.28;3478232;83;31684;-78
2022/12/12 07:24:33;;;;;;;16.77;7.93;;;;;;;-0.22;100.00;99495.86;3476757;83;99007;-79
2022/12/12 07:29:34;;;;;;;18.42;8.95;;;;;;;-0.18;100.00;99493.86;3481351;84;32301;-78
2022/12/12 07:34:34;;;;;;;17.47;7.87;;;;;;;-0.16;100.00;99501.30;3496631;82;98743;-79
2022/12/12 07:39:36;;;;;;;17.37;8.23;;;;;;;-0.11;100.00;99498.95;3506930;83;28398;-79
2022/12/12 07:44:37;;;;;;;22.62;8.20;;;;;;;-0.10;100.00;99506.74;3494107;83;98685;-79
2022/12/12 07:49:38;;;;;;;17.20;8.13;;;;;;;-0.07;100.00;99500.69;3494362;83;34840;-79
2022/12/12 07:54:38;;;;;;;19.63;8.03;;;;;;;-0.04;100.00;99501.37;3491987;83;99087;-79
2022/12/12 07:59:39;;;;;;;16.50;7.15;;;;;;;-0.01;100.00;99499.38;3494502;82;35530;-79
2022/12/12 08:04:40;;;;;;;14.27;6.63;;;;;;;0.03;100.00;99498.95;3488554;83;98599;-79
2022/12/12 08:09:41;;;;;;;14.70;6.67;;;;;;;0.03;100.00;99498.14;3502107;83;35371;-79
2022/12/12 08:14:42;;;;;;;13.27;5.90;;;;;;;0.09;100.00;99503.03;3491811;82;98484;-79
2022/12/12 08:19:43;;;;;;;13.97;6.37;;;;;;;0.12;100.00;99504.29;3501587;83;34874;-79
2022/12/12 08:24:43;;;;;;;13.15;6.25;;;;;;;0.17;100.00;99508.16;3491579;83;98733;-79
2022/12/12 08:29:44;;;;;;;11.40;5.60;;;;;;;0.21;100.00;99496.88;3504154;82;32550;-79
2022/12/12 08:34:46;;;;;;;13.73;6.13;;;;;;;0.23;100.00;99501.41;3492203;84;98561;-78
2022/12/12 08:39:47;;;;;;;14.90;5.60;;;;;;;0.26;100.00;99503.44;3442924;85;28159;-79
2022/12/12 08:44:49;;;;;;;13.15;6.05;;;;;;;0.30;100.00;99509.23;3380140;86;98687;-79
2022/12/12 08:49:50;;;;;;;14.93;5.80;;;;;;;0.34;100.00;99519.60;3462907;85;32479;-79
2022/12/12 08:54:50;;;;;;;14.20;5.87;;;;;;;0.38;100.00;99515.66;3461794;84;98663;-79
2022/12/12 08:59:51;;;;;;;12.47;5.10;;;;;;;0.44;100.00;99524.61;3460883;83;32866;-79
2022/12/12 09:04:52;;;;;;;11.35;4.67;;;;;;;0.48;100.00;99516.62;3460920;85;98590;-78
2022/12/12 09:09:53;;;;;;;12.43;5.77;;;;;;;0.50;100.00;99512.45;3466645;83;32480;-79
2022/12/12 09:14:54;;;;;;;14.30;5.47;;;;;;;0.53;100.00;99516.41;3451353;83;98930;-79
2022/12/12 09:19:54;;;;;;;11.00;5.28;;;;;;;0.60;100.00;99522.88;3403553;86;32520;-80
2022/12/12 09:24:55;;;;;;;10.00;4.03;;;;;;;0.64;100.00;99518.39;3464460;83;98585;-79
2022/12/12 09:29:56;;;;;;;9.60;4.13;;;;;;;0.69;100.00;99516.02;3467872;85;26268;-77
2022/12/12 09:34:57;;;;;;;10.83;4.33;;;;;;;0.73;100.00;99516.36;3463132;83;98598;-79
2022/12/12 09:39:58;;;;;;;11.93;5.10;;;;;;;0.79;100.00;99519.67;3466691;83;26255;-79
2022/12/12 09:45:03;;;;;;;11.33;5.17;;;;;;;0.82;100.00;99519.02;3471974;84;98664;-79
2022/12/12 09:50:28;;;;;;;9.17;4.40;;;;;;;0.86;100.00;99526.67;3484031;84;27436;-79
2022/12/12 09:55:38;;;;;;;17.40;5.60;;;;;;;0.91;100.00;99531.33;3452895;83;98573;-78
2022/12/12 10:00:44;;;;;;;12.07;4.90;;;;;;;0.96;100.00;99531.13;3474493;84;27452;-80
2022/12/12 10:05:57;;;;;;;;;;;;;;;1.00;100.00;99533.95;3477206;83;98873;-79
2022/12/12 10:11:05;;;;;;;8.67;3.73;;;;;;;1.06;100.00;99530.70;3488125;83;27582;-80
2022/12/12 10:16:11;;;;;;;8.88;3.77;;;;;;;1.10;100.00;99530.81;3460234;84;98434;-79
2022/12/12 10:21:20;;;;;;;14.07;6.33;;;;;;;1.14;100.00;99535.22;3489436;84;27561;-80
2022/12/12 10:26:26;;;;;;;11.67;5.40;;;;;;;1.18;100.00;99532.06;3486125;83;98636;-80
2022/12/12 10:31:59;;;;;;;14.13;5.20;;;;;;;1.25;100.00;99536.36;3485698;84;33215;-80
2022/12/12 10:37:12;;;;;;;13.70;4.77;;;;;;;1.33;100.00;99533.33;3481495;83;98517;-80
2022/12/12 10:42:42;;;;;;;11.27;4.53;;;;;;;1.39;100.00;99519.77;3487359;83;28756;-80
2022/12/12 10:47:44;;;;;;;9.40;3.57;;;;;;;1.42;100.00;99523.17;3491440;83;98571;-80
2022/12/12 10:52:45;;;;;;;8.07;3.37;;;;;;;1.46;100.00;99527.57;3503695;82;26966;-80
2022/12/12 10:57:46;;;;;;;8.97;3.30;;;;;;;1.52;100.00;99530.83;3497714;83;98587;-80
2022/12/12 11:02:46;;;;;;;7.93;3.20;;;;;;;1.60;100.00;99532.66;3493775;83;25943;-81
2022/12/12 11:08:04;;;;;;;6.87;3.22;;;;;;;1.65;100.00;99527.78;3492884;82;98196;-79
2022/12/12 11:13:15;;;;;;;8.83;3.33;;;;;;;1.72;100.00;99528.03;3484232;83;27476;-80
2022/12/12 11:18:20;;;;;;;7.05;3.37;;;;;;;1.81;100.00;99525.97;3498317;82;29278;-80
2022/12/12 11:23:27;;;;;;;8.97;3.37;;;;;;;1.90;100.00;99521.77;3497592;82;98217;-81
2022/12/12 11:28:35;;;;;;;10.63;3.80;;;;;;;1.95;100.00;99526.97;3493474;83;30587;-81
2022/12/12 11:33:47;;;;;;;8.07;3.13;;;;;;;2.03;100.00;99517.34;3492761;82;98427;-81
2022/12/12 11:38:54;;;;;;;6.43;2.87;;;;;;;2.13;100.00;99507.95;3506470;82;27493;-80
2022/12/12 11:43:59;;;;;;;6.37;2.53;;;;;;;2.22;100.00;99506.67;3473574;82;98443;-80
2022/12/12 11:49:03;;;;;;;7.30;2.60;;;;;;;2.29;100.00;99497.95;3460364;83;27441;-80
2022/12/12 11:54:23;;;;;;;7.73;2.77;;;;;;;2.33;100.00;99503.70;3448961;83;98547;-81
2022/12/12 11:59:53;;;;;;;6.60;2.63;;;;;;;2.38;100.00;99508.09;3454790;83;28609;-79
2022/12/12 12:05:13;;;;;;;7.30;2.90;;;;;;;2.39;100.00;99503.67;3447370;83;98316;-82
2022/12/12 12:10:28;;;;;;;5.93;2.37;;;;;;;2.43;100.00;99508.65;3468102;85;27714;-80
2022/12/12 12:15:46;;;;;;;7.78;2.90;;;;;;;2.44;100.00;99506.70;3460540;84;98505;-80
2022/12/12 12:21:18;;;;;;;5.47;2.10;;;;;;;2.43;100.00;99492.91;3468509;83;28724;-80
2022/12/12 12:26:52;;;;;;;7.03;2.47;;;;;;;2.40;100.00;99506.61;3437256;85;98707;-82
2022/12/12 12:32:11;;;;;;;9.77;3.37;;;;;;;2.39;100.00;99515.09;3466740;83;28291;-83
2022/12/12 12:37:43;;;;;;;10.40;4.00;;;;;;;2.33;100.00;99504.26;3468537;84;98032;-81
2022/12/12 12:42:58;;;;;;;7.65;3.00;;;;;;;2.30;100.00;99511.75;3472008;84;32855;-81
2022/12/12 12:48:10;;;;;;;10.10;4.43;;;;;;;2.22;99.98;99520.25;3491544;83;98278;-81
2022/12/12 12:53:20;;;;;;;10.70;4.70;;;;;;;2.17;99.72;99525.91;3456023;83;98637;-81
2022/12/12 12:58:28;;;;;;;10.83;3.90;;;;;;;2.09;99.42;99514.61;3498664;82;27453;-82
2022/12/12 13:03:37;;;;;;;10.35;3.80;;;;;;;2.04;99.23;99522.21;3493567;82;98212;-82
2022/12/12 13:09:03;;;;;;;8.10;3.10;;;;;;;1.99;99.08;99517.02;3496907;82;29069;-83
2022/12/12 13:14:21;;;;;;;11.12;3.37;;;;;;;1.91;98.76;99510.59;3491419;82;98354;-83
2022/12/12 13:19:42;;;;;;;10.20;3.63;;;;;;;1.79;98.38;99513.32;3496449;83;27460;-82
2022/12/12 13:25:00;;;;;;;9.90;4.63;;;;;;;1.72;98.62;99525.88;3488866;83;98466;-83
2022/12/12 13:30:19;;;;;;;10.47;3.87;;;;;;;1.62;98.60;99533.90;3471552;83;27413;-82
2022/12/12 13:35:44;;;;;;;10.68;4.65;;;;;;;1.52;98.86;99532.19;3486500;83;98938;-82
2022/12/12 13:40:48;;;;;;;11.80;4.70;;;;;;;1.47;99.09;99537.28;3496620;83;26546;-82
2022/12/12 13:45:49;;;;;;;13.80;5.43;;;;;;;1.40;99.12;99532.19;3485140;82;98401;-82
2022/12/12 13:51:29;;;;;;;10.87;5.00;;;;;;;1.33;99.21;99543.61;3477481;84;26627;-82
2022/12/12 13:56:36;;;;;;;11.12;5.03;;;;;;;1.26;98.98;99541.23;3475490;83;98569;-82
2022/12/12 14:01:39;;;;;;;9.47;4.20;;;;;;;1.14;98.96;99547.41;3479741;84;27242;-83
2022/12/12 14:06:40;;;;;;;11.00;4.17;;;;;;;1.07;99.11;99558.56;3473992;83;98182;-82
2022/12/12 14:11:41;;;;;;;12.07;4.10;;;;;;;0.99;99.25;99565.66;3479694;83;26522;-82
2022/12/12 14:16:42;;;;;;;14.63;4.83;;;;;;;0.95;99.28;99578.85;3483909;83;98197;-83
2022/12/12 14:21:46;;;;;;;10.13;4.40;;;;;;;0.91;99.59;99584.70;3486090;83;26489;-83
2022/12/12 14:26:47;;;;;;;15.47;5.17;;;;;;;0.88;99.61;99582.67;3481121;82;98444;-82
2022/12/12 14:32:12;;;;;;;11.73;5.87;;;;;;;0.86;99.89;99588.97;3495442;83;25915;-81
2022/12/12 14:37:27;;;;;;;11.87;6.00;;;;;;;0.82;99.88;99594.84;3483461;83;97974;-82
2022/12/12 14:42:55;;;;;;;15.33;5.80;;;;;;;0.80;100.00;99601.13;3478285;83;27395;-82
2022/12/12 14:48:23;;;;;;;12.47;5.55;;;;;;;0.79;100.00;99605.78;3478464;84;98647;-81
2022/12/12 14:53:29;;;;;;;20.47;10.03;;;;;;;0.77;100.00;99605.88;3478641;83;98575;-83
2022/12/12 14:58:35;;;;;;;14.30;6.17;;;;;;;0.74;100.00;99602.47;3453132;83;28281;-81
2022/12/12 15:03:46;;;;;;;17.20;7.33;;;;;;;0.70;100.00;99606.41;3481448;84;98810;-82
2022/12/12 15:08:47;;;;;;;12.43;5.77;;;;;;;0.70;100.00;99610.46;3480917;83;27456;-82
2022/12/12 15:13:55;;;;;;;14.68;7.05;;;;;;;0.69;100.00;99608.89;3482927;83;98811;-81
2022/12/12 15:18:57;;;;;;;14.03;7.73;;;;;;;0.67;100.00;99612.47;3488676;84;27217;-82
2022/12/12 15:23:59;;;;;;;15.60;7.42;;;;;;;0.63;100.00;99614.27;3477251;83;98694;-82
2022/12/12 15:29:00;;;;;;;14.20;7.37;;;;;;;0.59;100.00;99611.98;3484186;84;26097;-83
2022/12/12 15:34:00;;;;;;;18.63;7.97;;;;;;;0.54;100.00;99613.54;3488546;83;98866;-82
2022/12/12 15:39:12;;;;;;;15.70;7.50;;;;;;;0.51;100.00;99616.89;3491482;83;25865;-83
2022/12/12 15:44:19;;;;;;;14.40;7.20;;;;;;;0.47;100.00;99620.05;3477896;84;98585;-83
2022/12/12 15:49:42;;;;;;;13.33;6.63;;;;;;;0.39;100.00;99622.24;3462972;83;27422;-82
2022/12/12 15:54:47;;;;;;;15.97;8.07;;;;;;;0.33;100.00;99635.73;3465227;83;98730;-81
2022/12/12 16:00:02;;;;;;;15.33;7.20;;;;;;;0.29;100.00;99640.22;3456563;84;30249;-83
2022/12/12 16:05:35;;;;;;;14.53;7.00;;;;;;;0.25;100.00;99650.13;3455599;84;98649;-82
2022/12/12 16:10:40;;;;;;;14.27;6.73;;;;;;;0.22;100.00;99646.71;3464485;84;28910;-80
2022/12/12 16:15:41;;;;;;;18.33;9.73;;;;;;;0.19;100.00;99656.85;3457219;84;98620;-82
2022/12/12 16:20:55;;;;;;;21.10;8.60;;;;;;;0.16;100.00;99645.87;3468869;83;25928;-83
2022/12/12 16:25:56;;;;;;;26.50;12.43;;;;;;;0.12;100.00;99653.07;3459440;83;98701;-80
2022/12/12 16:31:01;;;;;;;23.17;11.13;;;;;;;0.12;100.00;99658.48;3471907;83;28505;-81
2022/12/12 16:36:07;;;;;;;28.80;11.77;;;;;;;0.10;100.00;99656.64;3463021;83;99220;-80
2022/12/12 16:41:21;;;;;;;21.12;10.25;;;;;;;0.05;100.00;99668.45;3472015;83;27400;-83
2022/12/12 16:46:24;;;;;;;19.40;9.70;;;;;;;0.00;100.00;99676.75;3479713;83;98869;-83
2022/12/12 16:51:30;;;;;;;21.10;10.47;;;;;;;-0.03;100.00;99680.66;3505721;82;27456;-83
2022/12/12 16:56:31;;;;;;;;;;;;;;;-0.03;100.00;99686.08;3485426;82;99056;-82
2022/12/12 17:01:32;;;;;;;16.80;8.20;;;;;;;-0.06;100.00;99688.87;3507591;82;26316;-81
2022/12/12 17:06:33;;;;;;;14.03;7.35;;;;;;;-0.10;100.00;99690.63;3501306;82;98629;-82
2022/12/12 17:11:48;;;;;;;21.40;10.93;;;;;;;-0.13;100.00;99691.84;3510424;82;26428;-80
2022/12/12 17:16:49;;;;;;;19.90;9.17;;;;;;;-0.13;100.00;99701.30;3497947;82;98874;-83
2022/12/12 17:21:50;;;;;;;18.90;8.17;;;;;;;-0.15;100.00;99701.62;3501075;82;28560;-80
2022/12/12 17:26:51;;;;;;;25.17;10.97;;;;;;;-0.16;100.00;99695.98;3502733;83;98551;-81
2022/12/12 17:31:52;;;;;;;17.70;8.97;;;;;;;-0.15;100.00;99710.31;3508953;83;26154;-81
2022/12/12 17:36:53;;;;;;;17.25;7.75;;;;;;;-0.16;100.00;99723.59;3503520;82;98981;-82
2022/12/12 17:41:53;;;;;;;18.67;9.00;;;;;;;-0.17;100.00;99715.23;3509128;82;26047;-80
2022/12/12 17:46:54;;;;;;;17.87;8.90;;;;;;;-0.17;100.00;99714.45;3491696;83;98895;-80
2022/12/12 17:51:55;;;;;;;17.77;8.10;;;;;;;-0.22;100.00;99712.70;3498243;82;25956;-80
2022/12/12 17:56:56;;;;;;;18.10;8.60;;;;;;;-0.23;100.00;99722.50;3496443;83;98387;-80
2022/12/12 18:01:57;;;;;;;17.97;8.33;;;;;;;-0.25;100.00;99726.87;3497514;83;33756;-80
2022/12/12 18:06:58;;;;;;;17.17;9.03;;;;;;;-0.27;100.00;99726.96;3500190;81;98768;-79
2022/12/12 18:11:59;;;;;;;20.30;9.20;;;;;;;-0.29;100.00;99726.50;3494932;83;33309;-79
2022/12/12 18:17:00;;;;;;;20.03;9.67;;;;;;;-0.32;100.00;99726.02;3478136;83;99108;-80
2022/12/12 18:22:01;;;;;;;17.63;8.30;;;;;;;-0.33;100.00;99733.08;3477365;83;33284;-79
2022/12/12 18:27:02;;;;;;;33.37;14.40;;;;;;;-0.33;100.00;99743.89;3484150;83;98916;-81
2022/12/12 18:32:04;;;;;;;22.27;10.00;;;;;;;-0.32;100.00;99740.64;3481029;83;33231;-79
2022/12/12 18:37:04;;;;;;;22.37;10.37;;;;;;;-0.32;100.00;99743.35;3475235;83;98991;-78
2022/12/12 18:42:05;;;;;;;28.47;13.33;;;;;;;-0.32;100.00;99746.86;3483235;83;33086;-80
2022/12/12 18:47:07;;;;;;;20.03;9.97;;;;;;;-0.32;100.00;99753.62;3468192;82;99254;-80
2022/12/12 18:52:08;;;;;;;20.20;8.83;;;;;;;-0.34;100.00;99758.53;3493756;82;33177;-81
2022/12/12 18:57:09;;;;;;;18.80;8.87;;;;;;;-0.34;100.00;99757.75;3487996;82;98672;-80
2022/12/12 19:02:12;;;;;;;29.47;13.07;;;;;;;-0.36;100.00;99772.94;3502824;83;31333;-79
2022/12/12 19:07:13;;;;;;;22.33;10.10;;;;;;;-0.39;100.00;99783.02;3489845;82;99003;-80
2022/12/12 19:12:14;;;;;;;19.10;9.70;;;;;;;-0.39;100.00;99779.55;3504703;84;33355;-79
2022/12/12 19:17:14;;;;;;;20.72;10.68;;;;;;;-0.42;100.00;99786.39;3495707;82;98808;-79
2022/12/12 19:22:16;;;;;;;19.73;10.10;;;;;;;-0.46;100.00;99785.42;3495923;83;32582;-80
2022/12/12 19:27:17;;;;;;;22.33;10.10;;;;;;;-0.48;100.00;99789.56;3491274;83;98988;-80
2022/12/12 19:32:18;;;;;;;19.13;10.03;;;;;;;-0.50;100.00;99803.97;3502468;82;32910;-80
2022/12/12 19:37:19;;;;;;;29.80;13.57;;;;;;;-0.52;100.00;99806.98;3492114;83;99320;-78
2022/12/12 19:42:20;;;;;;;23.67;10.57;;;;;;;-0.53;100.00;99809.45;3503138;83;26286;-79
2022/12/12 19:47:21;;;;;;;18.43;9.73;;;;;;;-0.54;100.00;99806.52;3499962;82;98724;-79
2022/12/12 19:52:21;;;;;;;20.77;10.63;;;;;;;-0.58;100.00;99793.39;3502111;83;32870;-78
2022/12/12 19:57:25;;;;;;;22.50;10.07;;;;;;;-0.53;100.00;99808.09;3499237;83;98978;-79
2022/12/12 20:02:25;;;;;;;21.37;11.20;;;;;;;-0.54;100.00;99812.46;3508563;82;32320;-79
2022/12/12 20:07:26;;;;;;;21.93;11.37;;;;;;;-0.58;100.00;99817.71;3503572;83;99161;-78
2022/12/12 20:12:29;;;;;;;21.37;9.87;;;;;;;-0.58;100.00;99822.31;3508503;83;32769;-79
2022/12/12 20:17:30;;;;;;;15.03;7.73;;;;;;;-0.59;100.00;99828.29;3501539;83;98871;-78
2022/12/12 20:22:30;;;;;;;17.57;8.20;;;;;;;-0.58;100.00;99826.36;3506003;83;31591;-77
2022/12/12 20:27:31;;;;;;;15.83;8.33;;;;;;;-0.58;100.00;99829.88;3493231;82;98774;-78
2022/12/12 20:32:32;;;;;;;17.83;8.87;;;;;;;-0.59;100.00;99827.48;3500742;82;30958;-78
2022/12/12 20:37:33;;;;;;;19.23;8.63;;;;;;;-0.59;100.00;99829.64;3498999;83;99244;-79
2022/12/12 20:42:34;;;;;;;21.23;10.33;;;;;;;-0.59;100.00;99835.05;3500497;83;31861;-78
2022/12/12 20:47:34;;;;;;;17.40;8.03;;;;;;;-0.61;100.00;99833.20;3483719;82;99352;-79
2022/12/12 20:52:38;;;;;;;16.60;8.57;;;;;;;-0.64;100.00;99833.04;3485667;83;26391;-78
2022/12/12 20:57:40;;;;;;;17.77;8.60;;;;;;;-0.64;100.00;99833.04;3476362;83;98725;-79
2022/12/12 21:02:41;;;;;;;19.27;8.60;;;;;;;-0.66;100.00;99834.70;3478470;83;26587;-78
2022/12/12 21:07:42;;;;;;;17.57;8.60;;;;;;;-0.69;100.00;99841.30;3466553;84;99142;-78
2022/12/12 21:12:43;;;;;;;17.87;8.50;;;;;;;-0.70;100.00;99838.36;3474870;83;35474;-78
2022/12/12 21:17:44;;;;;;;16.00;8.63;;;;;;;-0.76;100.00;99847.73;3470062;84;98884;-77
2022/12/12 21:22:45;;;;;;;16.43;7.60;;;;;;;-0.80;100.00;99838.67;3483469;83;35368;-80
2022/12/12 21:27:46;;;;;;;17.43;9.07;;;;;;;-0.81;100.00;99845.19;3461033;83;98715;-79
2022/12/12 21:32:46;;;;;;;17.30;9.57;;;;;;;-0.84;100.00;99841.75;3473015;84;35932;-80
2022/12/12 21:37:47;;;;;;;16.17;7.93;;;;;;;-0.84;100.00;99849.86;3474696;83;98922;-79
2022/12/12 21:42:48;;;;;;;14.50;6.90;;;;;;;-0.87;100.00;99852.66;3481349;83;35348;-78
2022/12/12 21:47:49;;;;;;;15.17;7.80;;;;;;;-0.92;100.00;99856.86;3479266;82;98829;-80
2022/12/12 21:58:09;;;;;;;18.73;9.13;;;;;;;-0.98;100.00;99876.22;3490789;82;98600;-79
2022/12/12 22:03:10;;;;;;;15.53;7.40;;;;;;;-1.01;100.00;99876.29;3500447;83;98591;-78
2022/12/12 22:08:10;;;;;;;14.93;7.87;;;;;;;-1.02;100.00;99873.35;3506100;82;26010;-77
2022/12/12 22:13:11;;;;;;;12.93;6.27;;;;;;;-1.06;100.00;99885.88;3513012;82;98713;-79
2022/12/12 22:18:13;;;;;;;12.00;6.17;;;;;;;-1.12;100.00;99887.14;3523766;82;32559;-79
2022/12/12 22:23:14;;;;;;;13.73;6.60;;;;;;;-1.13;100.00;99895.00;3519721;82;99040;-78
2022/12/12 22:28:15;;;;;;;13.53;7.03;;;;;;;-1.10;100.00;99893.58;3500069;82;32445;-79
2022/12/12 22:33:15;;;;;;;13.97;6.97;;;;;;;-1.11;100.00;99894.70;3486197;82;101045;-80
2022/12/12 22:38:16;;;;;;;13.47;6.57;;;;;;;-1.16;100.00;99898.31;3492356;82;32806;-79
2022/12/12 22:43:17;;;;;;;11.35;5.47;;;;;;;-1.20;100.00;99904.09;3490964;82;99023;-81
2022/12/12 22:48:18;;;;;;;10.40;5.13;;;;;;;-1.25;100.00;99898.86;3464586;82;28289;-80
2022/12/12 22:53:18;;;;;;;10.57;5.00;;;;;;;-1.30;100.00;99898.99;3361826;85;99006;-79
2022/12/12 22:58:19;;;;;;;10.80;4.77;;;;;;;-1.33;100.00;99904.19;3436338;84;26067;-80
2022/12/12 23:03:20;;;;;;;11.30;4.73;;;;;;;-1.35;100.00;99915.86;3413302;85;99089;-80
2022/12/12 23:08:21;;;;;;;12.33;5.60;;;;;;;-1.38;99.95;99915.93;3429771;84;25930;-79
2022/12/12 23:13:22;;;;;;;12.00;5.87;;;;;;;-1.40;99.21;99920.85;3422370;84;98625;-80
2022/12/12 23:18:23;;;;;;;9.53;4.60;;;;;;;-1.44;99.37;99919.88;3421761;84;26299;-79
2022/12/12 23:23:24;;;;;;;13.70;5.37;;;;;;;-1.45;99.44;99924.22;3418605;85;98812;-79
2022/12/12 23:28:25;;;;;;;12.03;5.67;;;;;;;-1.48;99.34;99922.94;3430492;84;25846;-78
2022/12/12 23:33:25;;;;;;;12.00;5.50;;;;;;;-1.48;99.65;99924.86;3418203;85;98956;-80
2022/12/12 23:38:26;;;;;;;13.23;6.83;;;;;;;-1.49;99.25;99927.31;3425210;84;33168;-80
2022/12/12 23:43:27;;;;;;;16.60;7.17;;;;;;;-1.48;99.31;99939.70;3420437;85;97822;-78
2022/12/12 23:48:29;;;;;;;15.73;8.00;;;;;;;-1.52;99.25;99951.67;3419409;86;33073;-78
2022/12/12 23:53:31;;;;;;;14.63;7.20;;;;;;;-1.56;98.61;99950.69;3405808;84;98720;-78